createdAt,value
2019-05-23T00:01:25.095Z,100212.51
2019-05-23T00:06:38.674Z,100210.42
2019-05-23T00:11:46.331Z,100219.75
2019-05-23T00:16:49.569Z,100222.91
2019-05-23T00:21:54.023Z,100227.23
2019-05-23T00:26:58.811Z,100227.42
2019-05-23T00:32:15.347Z,100222.66
2019-05-23T00:37:20.315Z,100219.46
2019-05-23T00:42:25.179Z,100223.97
2019-05-23T00:47:29.050Z,100224.50
2019-05-23T00:52:33.168Z,100229.34
2019-05-23T00:57:39.423Z,100236.86
2019-05-23T01:02:44.331Z,100238.30
2019-05-23T01:07:48.390Z,100242.41
2019-05-23T01:12:51.611Z,100253.73
2019-05-23T01:17:56.867Z,100256.14
2019-05-23T01:23:01.736Z,100251.30
2019-05-23T01:28:06.511Z,100244.42
2019-05-23T01:33:10.501Z,100255.09
2019-05-23T01:38:15.560Z,100240.97
2019-05-23T01:43:20.060Z,100238.54
2019-05-23T01:48:23.277Z,100239.69
2019-05-23T01:53:26.495Z,100241.52
2019-05-23T01:58:29.879Z,100243.16
2019-05-23T02:03:33.763Z,100249.78
2019-05-23T02:08:36.979Z,100249.95
2019-05-23T02:13:40.197Z,100251.51
2019-05-23T02:18:45.081Z,100249.36
2019-05-23T02:23:48.651Z,100247.80
2019-05-23T02:28:53.246Z,100245.80
2019-05-23T02:33:56.928Z,100244.16
2019-05-23T02:39:01.787Z,100243.59
2019-05-23T02:44:09.557Z,100244.59
2019-05-23T02:49:14.895Z,100248.63
2019-05-23T02:54:19.591Z,100256.78
2019-05-23T02:59:29.064Z,100251.37
2019-05-23T03:04:33.916Z,100252.62
2019-05-23T03:09:38.776Z,100255.19
2019-05-23T03:14:42.758Z,100258.52
2019-05-23T03:19:55.952Z,100256.00
2019-05-23T03:25:03.221Z,100250.89
2019-05-23T03:30:09.181Z,100248.11
2019-05-23T03:35:14.037Z,100253.57
2019-05-23T03:40:19.259Z,100253.77
2019-05-23T03:45:24.180Z,100249.78
2019-05-23T03:50:29.039Z,100246.99
2019-05-23T03:55:32.840Z,100244.69
2019-05-23T04:00:37.688Z,100239.27
2019-05-23T04:05:40.930Z,100246.58
2019-05-23T04:10:45.559Z,100246.33
2019-05-23T04:15:48.796Z,100251.90
2019-05-23T04:20:52.267Z,100255.78
2019-05-23T04:25:55.757Z,100247.73
2019-05-23T04:30:59.440Z,100257.19
2019-05-23T04:36:03.137Z,100263.66
2019-05-23T04:41:06.355Z,100267.90
2019-05-23T04:46:09.741Z,100271.03
2019-05-23T04:51:13.139Z,100277.32
2019-05-23T04:56:17.230Z,100282.64
2019-05-23T05:01:20.451Z,100272.50
2019-05-23T05:06:23.680Z,100278.33
2019-05-23T05:11:30.392Z,100285.84
2019-05-23T05:16:32.508Z,100292.55
2019-05-23T05:21:36.309Z,100290.91
2019-05-23T05:26:39.529Z,100301.42
2019-05-23T05:31:42.750Z,100302.34
2019-05-23T05:36:46.335Z,100314.48
2019-05-23T05:41:50.357Z,100311.39
2019-05-23T05:46:53.545Z,100307.50
2019-05-23T05:51:56.789Z,100316.34
2019-05-23T05:57:00.066Z,100315.12
2019-05-23T06:02:04.924Z,100322.16
2019-05-23T06:07:15.867Z,100326.62
2019-05-23T06:12:19.759Z,100325.62
2019-05-23T06:17:23.247Z,100319.73
2019-05-23T06:22:28.238Z,100319.86
2019-05-23T06:27:31.451Z,100320.38
2019-05-23T06:32:35.648Z,100328.28
2019-05-23T06:37:39.846Z,100321.35
2019-05-23T06:42:43.052Z,100325.47
2019-05-23T06:47:46.256Z,100322.05
2019-05-23T06:52:49.447Z,100334.77
2019-05-23T06:57:52.925Z,100323.92
2019-05-23T07:02:56.120Z,100330.86
2019-05-23T07:07:59.314Z,100341.92
2019-05-23T07:13:02.982Z,100340.92
2019-05-23T07:18:06.983Z,100338.83
2019-05-23T07:23:11.643Z,100342.72
2019-05-23T07:28:14.906Z,100339.72
2019-05-23T07:33:19.171Z,100343.04
2019-05-23T07:38:22.433Z,100347.56
2019-05-23T07:43:25.641Z,100351.47
2019-05-23T07:48:29.375Z,100358.97
2019-05-23T07:53:37.076Z,100357.88
2019-05-23T07:58:40.878Z,100362.09
2019-05-23T08:03:44.038Z,100350.95
2019-05-23T08:08:48.063Z,100355.18
2019-05-23T08:13:51.986Z,100354.64
2019-05-23T08:18:55.666Z,100343.14
2019-05-23T08:23:58.876Z,100331.95
2019-05-23T08:29:24.786Z,100335.45
2019-05-23T08:34:08.884Z,100332.06
2019-05-23T08:39:12.240Z,100330.47
2019-05-23T08:44:15.714Z,100336.30
2019-05-23T08:49:18.907Z,100333.90
2019-05-23T08:54:22.091Z,100329.75
2019-05-23T08:59:25.299Z,100336.26
2019-05-23T09:04:28.759Z,100335.50
2019-05-23T09:09:32.727Z,100333.78
2019-05-23T09:14:36.217Z,100342.94
2019-05-23T09:19:39.403Z,100334.27
2019-05-23T09:24:42.603Z,100330.05
2019-05-23T09:29:45.861Z,100328.56
2019-05-23T09:34:49.100Z,100335.50
2019-05-23T09:39:52.297Z,100321.98
2019-05-23T09:44:55.493Z,100315.25
2019-05-23T09:49:58.738Z,100316.73
2019-05-23T09:55:01.941Z,100319.20
2019-05-23T10:00:09.182Z,100319.66
2019-05-23T10:05:12.673Z,100324.92
2019-05-23T10:10:17.515Z,100318.48
2019-05-23T10:15:25.709Z,100323.73
2019-05-23T10:20:29.586Z,100316.61
2019-05-23T10:25:32.821Z,100321.98
2019-05-23T10:30:35.981Z,100321.06
2019-05-23T10:35:39.188Z,100316.99
2019-05-23T10:40:42.377Z,100321.33
2019-05-23T10:45:45.561Z,100312.58
2019-05-23T10:50:48.763Z,100303.66
2019-05-23T10:55:51.957Z,100306.04
2019-05-23T11:00:55.820Z,100293.50
2019-05-23T11:06:13.285Z,100292.82
2019-05-23T11:11:05.334Z,100299.31
2019-05-23T11:16:09.228Z,100280.98
2019-05-23T11:21:12.417Z,100292.91
2019-05-23T11:26:15.629Z,100288.78
2019-05-23T11:31:18.985Z,100276.16
2019-05-23T11:36:34.746Z,100273.72
2019-05-23T11:41:27.372Z,100275.84
2019-05-23T11:46:32.224Z,100259.09
2019-05-23T11:51:36.627Z,100269.09
2019-05-23T11:56:39.814Z,100260.23
2019-05-23T12:01:44.651Z,100253.61
2019-05-23T12:06:55.370Z,100262.73
2019-05-23T12:11:54.396Z,100260.86
2019-05-23T12:16:57.666Z,100260.42
2019-05-23T12:22:00.870Z,100250.06
2019-05-23T12:27:04.139Z,100238.77
2019-05-23T12:32:09.079Z,100231.52
2019-05-23T12:37:19.071Z,100236.09
2019-05-23T12:42:17.223Z,100250.97
2019-05-23T12:47:22.081Z,100238.27
2019-05-23T12:52:26.075Z,100220.20
2019-05-23T12:57:29.356Z,100227.02
2019-05-23T13:02:32.903Z,100231.44
2019-05-23T13:07:36.905Z,100220.56
2019-05-23T13:12:41.266Z,100222.12
2019-05-23T13:17:44.472Z,100217.53
2019-05-23T13:22:47.663Z,100203.98
2019-05-23T13:27:51.049Z,100203.78
2019-05-23T13:32:54.362Z,100211.02
2019-05-23T13:37:57.544Z,100194.48
2019-05-23T13:43:00.761Z,100190.97
2019-05-23T13:48:04.634Z,100185.23
2019-05-23T13:53:08.463Z,100183.98
2019-05-23T13:58:11.674Z,100178.23
2019-05-23T14:03:15.261Z,100181.62
2019-05-23T14:08:19.433Z,100175.92
2019-05-23T14:13:23.342Z,100174.47
2019-05-23T14:18:28.330Z,100176.14
2019-05-23T14:23:33.190Z,100174.39
2019-05-23T14:28:36.913Z,100168.58
2019-05-23T14:33:50.765Z,100160.78
2019-05-23T14:38:55.605Z,100156.94
2019-05-23T14:43:59.095Z,100162.48
2019-05-23T14:49:03.960Z,100163.56
2019-05-23T14:54:14.584Z,100150.52
2019-05-23T14:59:18.350Z,100155.11
2019-05-23T15:04:22.307Z,100156.30
2019-05-23T15:09:25.702Z,100156.59
2019-05-23T15:14:28.925Z,100152.84
2019-05-23T15:19:42.158Z,100149.27
2019-05-23T15:24:37.245Z,100153.06
2019-05-23T15:29:40.504Z,100149.22
2019-05-23T15:34:43.688Z,100154.84
2019-05-23T15:39:46.891Z,100144.12
2019-05-23T15:44:50.158Z,100150.74
2019-05-23T15:49:55.098Z,100148.80
2019-05-23T15:55:11.643Z,100148.62
2019-05-23T16:00:16.690Z,100147.33
2019-05-23T16:05:19.930Z,100142.83
2019-05-23T16:10:24.616Z,100144.97
2019-05-23T16:15:28.016Z,100145.14
2019-05-23T16:20:31.238Z,100132.61
2019-05-23T16:25:34.447Z,100139.71
2019-05-23T16:30:37.675Z,100130.90
2019-05-23T16:35:40.886Z,100136.72
2019-05-23T16:40:44.378Z,100137.73
2019-05-23T16:45:47.605Z,100133.32
2019-05-23T16:50:50.836Z,100133.75
2019-05-23T16:55:55.700Z,100135.73
2019-05-23T17:01:00.574Z,100139.64
2019-05-23T17:06:05.427Z,100139.34
2019-05-23T17:11:16.143Z,100134.36
2019-05-23T17:16:24.059Z,100138.77
2019-05-23T17:21:34.792Z,100142.23
2019-05-23T17:26:51.643Z,100142.72
2019-05-23T17:31:56.209Z,100134.32
2019-05-23T17:36:59.428Z,100131.55
2019-05-23T17:42:02.654Z,100140.33
2019-05-23T17:47:05.878Z,100130.67
2019-05-23T17:52:09.511Z,100127.63
2019-05-23T17:57:12.741Z,100129.79
2019-05-23T18:02:15.950Z,100130.13
2019-05-23T18:07:20.336Z,100135.69
2019-05-23T18:12:23.772Z,100129.64
2019-05-23T18:17:27.178Z,100132.08
2019-05-23T18:22:32.038Z,100125.38
2019-05-23T18:27:35.417Z,100125.04
2019-05-23T18:32:39.016Z,100125.88
2019-05-23T18:37:42.231Z,100130.24
2019-05-23T18:42:46.223Z,100142.06
2019-05-23T18:47:49.902Z,100134.09
2019-05-23T18:52:53.193Z,100138.11
2019-05-23T18:57:56.405Z,100148.83
2019-05-23T19:03:00.085Z,100158.19
2019-05-23T19:08:03.292Z,100161.45
2019-05-23T19:13:06.531Z,100167.14
2019-05-23T19:18:10.031Z,100168.73
2019-05-23T19:23:13.521Z,100167.72
2019-05-23T19:28:17.173Z,100172.84
2019-05-23T19:33:20.403Z,100173.94
2019-05-23T19:38:23.791Z,100181.09
2019-05-23T19:43:27.585Z,100175.01
2019-05-23T19:48:31.073Z,100171.03
2019-05-23T19:53:34.757Z,100169.84
2019-05-23T19:58:37.985Z,100166.22
2019-05-23T20:03:43.084Z,100159.12
2019-05-23T20:08:47.161Z,100161.51
2019-05-23T20:13:50.377Z,100164.28
2019-05-23T20:18:53.589Z,100161.02
2019-05-23T20:23:56.802Z,100159.61
2019-05-23T20:29:03.144Z,100158.77
2019-05-23T20:34:07.134Z,100153.79
2019-05-23T20:39:10.066Z,100160.14
2019-05-23T20:44:13.283Z,100160.31
2019-05-23T20:49:16.493Z,100161.02
2019-05-23T20:54:19.709Z,100152.19
2019-05-23T20:59:23.113Z,100143.69
2019-05-23T21:04:26.309Z,100142.05
2019-05-23T21:09:29.521Z,100139.19
2019-05-23T21:14:32.739Z,100140.38
2019-05-23T21:19:35.953Z,100146.72
2019-05-23T21:24:39.166Z,100147.88
2019-05-23T21:29:42.381Z,100136.70
2019-05-23T21:34:45.578Z,100148.88
2019-05-23T21:39:48.778Z,100141.44
2019-05-23T21:44:51.989Z,100145.88
2019-05-23T21:49:55.201Z,100151.62
2019-05-23T21:54:58.419Z,100158.59
2019-05-23T22:00:01.648Z,100153.75
2019-05-23T22:05:13.716Z,100157.89
2019-05-23T22:10:16.998Z,100153.61
2019-05-23T22:15:23.469Z,100147.66
2019-05-23T22:20:26.688Z,100151.80
2019-05-23T22:25:33.025Z,100147.08
2019-05-23T22:30:36.237Z,100156.03
2019-05-23T22:35:39.453Z,100143.30
2019-05-23T22:40:42.662Z,100139.53
2019-05-23T22:45:45.878Z,100134.90
2019-05-23T22:50:49.124Z,100138.43
2019-05-23T22:55:52.334Z,100141.05
2019-05-23T23:00:55.718Z,100136.61
2019-05-23T23:05:58.955Z,100130.75
2019-05-23T23:11:02.170Z,100127.14
2019-05-23T23:16:05.571Z,100127.03
2019-05-23T23:21:08.805Z,100125.90
2019-05-23T23:26:12.021Z,100131.42
2019-05-23T23:31:15.401Z,100126.88
2019-05-23T23:36:18.632Z,100128.73
2019-05-23T23:41:21.845Z,100120.88
2019-05-23T23:46:43.046Z,100121.36
2019-05-23T23:52:04.323Z,100119.91
2019-05-23T23:57:25.492Z,100119.72
